sensor_id;sensor_type;location;lat;lon;timestamp;P1;durP1;ratioP1;P2;durP2;ratioP2
48241;SDS011;34041;51.812;4.622;2022-11-20T00:02:46;8.90;;;8.00;;
48241;SDS011;34041;51.812;4.622;2022-11-20T00:05:46;8.17;;;7.37;;
48241;SDS011;34041;51.812;4.622;2022-11-20T00:08:47;8.50;;;7.15;;
48241;SDS011;34041;51.812;4.622;2022-11-20T00:11:47;9.38;;;8.38;;
48241;SDS011;34041;51.812;4.622;2022-11-20T00:14:47;8.17;;;7.37;;
48241;SDS011;34041;51.812;4.622;2022-11-20T00:17:47;8.67;;;7.37;;
48241;SDS011;34041;51.812;4.622;2022-11-20T00:20:48;8.77;;;6.87;;
48241;SDS011;34041;51.812;4.622;2022-11-20T00:23:49;8.95;;;7.47;;
48241;SDS011;34041;51.812;4.622;2022-11-20T00:26:49;8.82;;;7.03;;
48241;SDS011;34041;51.812;4.622;2022-11-20T00:29:49;7.22;;;6.53;;
48241;SDS011;34041;51.812;4.622;2022-11-20T00:32:50;8.07;;;7.13;;
48241;SDS011;34041;51.812;4.622;2022-11-20T00:35:50;8.47;;;7.20;;
48241;SDS011;34041;51.812;4.622;2022-11-20T00:38:51;7.43;;;6.63;;
48241;SDS011;34041;51.812;4.622;2022-11-20T00:41:51;8.45;;;7.35;;
48241;SDS011;34041;51.812;4.622;2022-11-20T00:44:51;7.40;;;6.60;;
48241;SDS011;34041;51.812;4.622;2022-11-20T00:47:52;8.50;;;7.47;;
48241;SDS011;34041;51.812;4.622;2022-11-20T00:50:52;7.67;;;6.90;;
48241;SDS011;34041;51.812;4.622;2022-11-20T00:53:56;8.75;;;7.63;;
48241;SDS011;34041;51.812;4.622;2022-11-20T00:56:57;7.55;;;6.22;;
48241;SDS011;34041;51.812;4.622;2022-11-20T00:59:57;7.72;;;6.85;;
48241;SDS011;34041;51.812;4.622;2022-11-20T01:02:57;7.57;;;6.57;;
48241;SDS011;34041;51.812;4.622;2022-11-20T01:06:04;7.83;;;7.03;;
48241;SDS011;34041;51.812;4.622;2022-11-20T01:09:06;8.45;;;6.15;;
48241;SDS011;34041;51.812;4.622;2022-11-20T01:12:06;7.70;;;6.90;;
48241;SDS011;34041;51.812;4.622;2022-11-20T01:15:07;9.17;;;7.10;;
48241;SDS011;34041;51.812;4.622;2022-11-20T01:18:08;8.35;;;6.53;;
48241;SDS011;34041;51.812;4.622;2022-11-20T01:21:09;8.23;;;7.40;;
48241;SDS011;34041;51.812;4.622;2022-11-20T01:24:13;7.88;;;6.30;;
48241;SDS011;34041;51.812;4.622;2022-11-20T01:27:13;8.07;;;6.70;;
48241;SDS011;34041;51.812;4.622;2022-11-20T01:30:13;8.73;;;6.30;;
48241;SDS011;34041;51.812;4.622;2022-11-20T01:33:14;7.60;;;6.70;;
48241;SDS011;34041;51.812;4.622;2022-11-20T01:36:14;7.50;;;6.70;;
48241;SDS011;34041;51.812;4.622;2022-11-20T01:39:16;7.82;;;7.03;;
48241;SDS011;34041;51.812;4.622;2022-11-20T01:42:17;7.13;;;6.43;;
48241;SDS011;34041;51.812;4.622;2022-11-20T01:48:59;7.10;;;6.32;;
48241;SDS011;34041;51.812;4.622;2022-11-20T01:52:02;7.63;;;6.70;;
48241;SDS011;34041;51.812;4.622;2022-11-20T01:55:09;6.75;;;6.05;;
48241;SDS011;34041;51.812;4.622;2022-11-20T01:58:09;7.90;;;6.65;;
48241;SDS011;34041;51.812;4.622;2022-11-20T02:01:10;7.85;;;6.65;;
48241;SDS011;34041;51.812;4.622;2022-11-20T02:04:10;7.15;;;6.22;;
48241;SDS011;34041;51.812;4.622;2022-11-20T02:07:11;8.68;;;6.85;;
48241;SDS011;34041;51.812;4.622;2022-11-20T02:10:11;8.15;;;6.18;;
48241;SDS011;34041;51.812;4.622;2022-11-20T02:13:12;7.55;;;6.53;;
48241;SDS011;34041;51.812;4.622;2022-11-20T02:16:33;7.07;;;6.13;;
48241;SDS011;34041;51.812;4.622;2022-11-20T02:19:34;7.85;;;7.03;;
48241;SDS011;34041;51.812;4.622;2022-11-20T02:22:38;7.80;;;6.87;;
48241;SDS011;34041;51.812;4.622;2022-11-20T02:25:41;6.88;;;5.82;;
48241;SDS011;34041;51.812;4.622;2022-11-20T02:28:42;6.82;;;6.07;;
48241;SDS011;34041;51.812;4.622;2022-11-20T02:31:43;7.90;;;7.07;;
48241;SDS011;34041;51.812;4.622;2022-11-20T02:34:43;7.88;;;6.97;;
48241;SDS011;34041;51.812;4.622;2022-11-20T02:37:43;7.30;;;6.50;;
48241;SDS011;34041;51.812;4.622;2022-11-20T02:40:44;7.47;;;6.43;;
48241;SDS011;34041;51.812;4.622;2022-11-20T02:43:44;7.90;;;6.72;;
48241;SDS011;34041;51.812;4.622;2022-11-20T02:46:44;7.83;;;6.97;;
48241;SDS011;34041;51.812;4.622;2022-11-20T02:49:45;7.50;;;6.50;;
48241;SDS011;34041;51.812;4.622;2022-11-20T02:52:45;6.95;;;6.20;;
48241;SDS011;34041;51.812;4.622;2022-11-20T02:55:46;8.02;;;6.90;;
48241;SDS011;34041;51.812;4.622;2022-11-20T02:58:46;7.53;;;5.95;;
48241;SDS011;34041;51.812;4.622;2022-11-20T03:01:47;7.70;;;6.45;;
48241;SDS011;34041;51.812;4.622;2022-11-20T03:04:47;7.33;;;6.40;;
48241;SDS011;34041;51.812;4.622;2022-11-20T03:07:47;7.60;;;6.80;;
48241;SDS011;34041;51.812;4.622;2022-11-20T03:10:48;7.40;;;6.20;;
48241;SDS011;34041;51.812;4.622;2022-11-20T03:13:48;7.97;;;6.80;;
48241;SDS011;34041;51.812;4.622;2022-11-20T03:16:48;7.75;;;6.93;;
48241;SDS011;34041;51.812;4.622;2022-11-20T03:19:48;10.40;;;7.10;;
48241;SDS011;34041;51.812;4.622;2022-11-20T03:22:48;8.33;;;7.03;;
48241;SDS011;34041;51.812;4.622;2022-11-20T03:25:49;7.17;;;6.13;;
48241;SDS011;34041;51.812;4.622;2022-11-20T03:28:50;9.30;;;7.13;;
48241;SDS011;34041;51.812;4.622;2022-11-20T03:31:50;8.18;;;6.78;;
48241;SDS011;34041;51.812;4.622;2022-11-20T03:34:51;7.17;;;6.47;;
48241;SDS011;34041;51.812;4.622;2022-11-20T03:37:51;8.03;;;6.83;;
48241;SDS011;34041;51.812;4.622;2022-11-20T03:40:51;7.53;;;6.30;;
48241;SDS011;34041;51.812;4.622;2022-11-20T03:43:58;7.32;;;6.53;;
48241;SDS011;34041;51.812;4.622;2022-11-20T03:46:58;7.85;;;7.05;;
48241;SDS011;34041;51.812;4.622;2022-11-20T03:49:58;8.33;;;7.07;;
48241;SDS011;34041;51.812;4.622;2022-11-20T03:52:59;6.93;;;6.23;;
48241;SDS011;34041;51.812;4.622;2022-11-20T03:55:59;7.63;;;6.43;;
48241;SDS011;34041;51.812;4.622;2022-11-20T03:58:59;6.90;;;6.20;;
48241;SDS011;34041;51.812;4.622;2022-11-20T04:01:59;7.38;;;6.55;;
48241;SDS011;34041;51.812;4.622;2022-11-20T04:04:59;8.77;;;6.45;;
48241;SDS011;34041;51.812;4.622;2022-11-20T04:08:00;8.43;;;6.20;;
48241;SDS011;34041;51.812;4.622;2022-11-20T04:11:14;7.80;;;6.47;;
48241;SDS011;34041;51.812;4.622;2022-11-20T04:14:15;8.35;;;7.00;;
48241;SDS011;34041;51.812;4.622;2022-11-20T04:17:16;6.97;;;6.28;;
48241;SDS011;34041;51.812;4.622;2022-11-20T04:20:16;7.27;;;6.57;;
48241;SDS011;34041;51.812;4.622;2022-11-20T04:23:16;8.20;;;7.03;;
48241;SDS011;34041;51.812;4.622;2022-11-20T04:26:16;6.27;;;5.67;;
48241;SDS011;34041;51.812;4.622;2022-11-20T04:29:17;7.97;;;7.18;;
48241;SDS011;34041;51.812;4.622;2022-11-20T04:32:17;8.13;;;6.83;;
48241;SDS011;34041;51.812;4.622;2022-11-20T04:35:17;7.40;;;6.63;;
48241;SDS011;34041;51.812;4.622;2022-11-20T04:38:17;8.80;;;6.13;;
48241;SDS011;34041;51.812;4.622;2022-11-20T04:41:18;8.50;;;7.53;;
48241;SDS011;34041;51.812;4.622;2022-11-20T04:44:19;6.68;;;5.75;;
48241;SDS011;34041;51.812;4.622;2022-11-20T04:47:19;8.10;;;6.97;;
48241;SDS011;34041;51.812;4.622;2022-11-20T04:50:19;8.70;;;6.87;;
48241;SDS011;34041;51.812;4.622;2022-11-20T04:53:20;9.20;;;6.53;;
48241;SDS011;34041;51.812;4.622;2022-11-20T04:56:20;7.20;;;6.50;;
48241;SDS011;34041;51.812;4.622;2022-11-20T04:59:21;8.30;;;6.75;;
48241;SDS011;34041;51.812;4.622;2022-11-20T05:02:21;7.97;;;6.72;;
48241;SDS011;34041;51.812;4.622;2022-11-20T05:05:21;8.02;;;6.72;;
48241;SDS011;34041;51.812;4.622;2022-11-20T05:08:22;7.75;;;6.95;;
48241;SDS011;34041;51.812;4.622;2022-11-20T05:11:22;8.73;;;7.82;;
48241;SDS011;34041;51.812;4.622;2022-11-20T05:14:22;8.68;;;6.75;;
48241;SDS011;34041;51.812;4.622;2022-11-20T05:17:22;7.20;;;6.00;;
48241;SDS011;34041;51.812;4.622;2022-11-20T05:20:23;6.97;;;6.27;;
48241;SDS011;34041;51.812;4.622;2022-11-20T05:23:23;6.97;;;6.20;;
48241;SDS011;34041;51.812;4.622;2022-11-20T05:26:23;8.38;;;7.00;;
48241;SDS011;34041;51.812;4.622;2022-11-20T05:29:24;8.60;;;6.45;;
48241;SDS011;34041;51.812;4.622;2022-11-20T05:32:24;9.70;;;7.47;;
48241;SDS011;34041;51.812;4.622;2022-11-20T05:35:25;8.05;;;6.82;;
48241;SDS011;34041;51.812;4.622;2022-11-20T05:38:25;8.97;;;7.73;;
48241;SDS011;34041;51.812;4.622;2022-11-20T05:41:25;7.78;;;6.25;;
48241;SDS011;34041;51.812;4.622;2022-11-20T05:44:26;7.00;;;6.20;;
48241;SDS011;34041;51.812;4.622;2022-11-20T05:47:26;8.17;;;7.33;;
48241;SDS011;34041;51.812;4.622;2022-11-20T05:50:27;8.40;;;6.82;;
48241;SDS011;34041;51.812;4.622;2022-11-20T05:53:27;7.85;;;7.10;;
48241;SDS011;34041;51.812;4.622;2022-11-20T05:56:28;8.63;;;7.68;;
48241;SDS011;34041;51.812;4.622;2022-11-20T05:59:28;8.70;;;7.30;;
48241;SDS011;34041;51.812;4.622;2022-11-20T06:02:28;7.97;;;7.10;;
48241;SDS011;34041;51.812;4.622;2022-11-20T06:05:28;7.18;;;6.47;;
48241;SDS011;34041;51.812;4.622;2022-11-20T06:08:29;7.72;;;6.53;;
48241;SDS011;34041;51.812;4.622;2022-11-20T06:11:29;7.95;;;7.15;;
48241;SDS011;34041;51.812;4.622;2022-11-20T06:14:29;9.10;;;6.50;;
48241;SDS011;34041;51.812;4.622;2022-11-20T06:17:29;8.67;;;7.00;;
48241;SDS011;34041;51.812;4.622;2022-11-20T06:20:30;8.87;;;7.60;;
48241;SDS011;34041;51.812;4.622;2022-11-20T06:23:30;8.00;;;7.13;;
48241;SDS011;34041;51.812;4.622;2022-11-20T06:26:31;7.70;;;6.78;;
48241;SDS011;34041;51.812;4.622;2022-11-20T06:29:31;7.33;;;6.63;;
48241;SDS011;34041;51.812;4.622;2022-11-20T06:32:32;8.47;;;7.13;;
48241;SDS011;34041;51.812;4.622;2022-11-20T06:35:32;8.60;;;7.05;;
48241;SDS011;34041;51.812;4.622;2022-11-20T06:38:32;8.23;;;6.87;;
48241;SDS011;34041;51.812;4.622;2022-11-20T06:41:33;9.43;;;7.57;;
48241;SDS011;34041;51.812;4.622;2022-11-20T06:44:33;6.57;;;5.87;;
48241;SDS011;34041;51.812;4.622;2022-11-20T06:47:33;7.60;;;6.90;;
48241;SDS011;34041;51.812;4.622;2022-11-20T06:50:33;8.73;;;7.82;;
48241;SDS011;34041;51.812;4.622;2022-11-20T06:53:34;8.63;;;7.07;;
48241;SDS011;34041;51.812;4.622;2022-11-20T06:56:34;9.70;;;7.68;;
48241;SDS011;34041;51.812;4.622;2022-11-20T06:59:34;8.88;;;7.82;;
48241;SDS011;34041;51.812;4.622;2022-11-20T07:02:35;9.00;;;7.87;;
48241;SDS011;34041;51.812;4.622;2022-11-20T07:05:35;8.67;;;7.77;;
48241;SDS011;34041;51.812;4.622;2022-11-20T07:08:35;8.10;;;7.23;;
48241;SDS011;34041;51.812;4.622;2022-11-20T07:11:35;8.73;;;7.20;;
48241;SDS011;34041;51.812;4.622;2022-11-20T07:14:36;8.80;;;7.77;;
48241;SDS011;34041;51.812;4.622;2022-11-20T07:17:36;8.20;;;7.20;;
48241;SDS011;34041;51.812;4.622;2022-11-20T07:20:36;8.70;;;7.30;;
48241;SDS011;34041;51.812;4.622;2022-11-20T07:23:36;8.67;;;7.73;;
48241;SDS011;34041;51.812;4.622;2022-11-20T07:26:37;8.30;;;7.32;;
48241;SDS011;34041;51.812;4.622;2022-11-20T07:29:37;8.33;;;7.20;;
48241;SDS011;34041;51.812;4.622;2022-11-20T07:32:37;8.47;;;7.63;;
48241;SDS011;34041;51.812;4.622;2022-11-20T07:35:37;8.57;;;7.77;;
48241;SDS011;34041;51.812;4.622;2022-11-20T07:38:38;9.25;;;7.32;;
48241;SDS011;34041;51.812;4.622;2022-11-20T07:41:38;8.90;;;7.63;;
48241;SDS011;34041;51.812;4.622;2022-11-20T07:44:39;8.45;;;7.55;;
48241;SDS011;34041;51.812;4.622;2022-11-20T07:47:39;8.25;;;7.45;;
48241;SDS011;34041;51.812;4.622;2022-11-20T07:50:39;7.53;;;6.73;;
48241;SDS011;34041;51.812;4.622;2022-11-20T07:53:39;8.47;;;7.07;;
48241;SDS011;34041;51.812;4.622;2022-11-20T07:56:40;8.57;;;7.13;;
48241;SDS011;34041;51.812;4.622;2022-11-20T07:59:40;9.23;;;8.20;;
48241;SDS011;34041;51.812;4.622;2022-11-20T08:02:40;9.20;;;7.50;;
48241;SDS011;34041;51.812;4.622;2022-11-20T08:05:41;8.65;;;7.53;;
48241;SDS011;34041;51.812;4.622;2022-11-20T08:08:41;8.00;;;6.68;;
48241;SDS011;34041;51.812;4.622;2022-11-20T08:11:41;8.90;;;8.00;;
48241;SDS011;34041;51.812;4.622;2022-11-20T08:15:00;8.95;;;7.43;;
48241;SDS011;34041;51.812;4.622;2022-11-20T08:18:01;8.40;;;6.90;;
48241;SDS011;34041;51.812;4.622;2022-11-20T08:21:03;10.30;;;9.13;;
48241;SDS011;34041;51.812;4.622;2022-11-20T08:24:04;8.38;;;7.22;;
48241;SDS011;34041;51.812;4.622;2022-11-20T08:27:04;9.10;;;7.80;;
48241;SDS011;34041;51.812;4.622;2022-11-20T08:30:05;8.73;;;7.73;;
48241;SDS011;34041;51.812;4.622;2022-11-20T08:33:06;9.60;;;7.80;;
48241;SDS011;34041;51.812;4.622;2022-11-20T08:36:08;8.73;;;7.45;;
48241;SDS011;34041;51.812;4.622;2022-11-20T08:39:10;9.23;;;8.27;;
48241;SDS011;34041;51.812;4.622;2022-11-20T08:42:11;8.05;;;7.20;;
48241;SDS011;34041;51.812;4.622;2022-11-20T08:45:11;7.83;;;6.83;;
48241;SDS011;34041;51.812;4.622;2022-11-20T08:48:11;8.00;;;6.37;;
48241;SDS011;34041;51.812;4.622;2022-11-20T08:51:11;8.97;;;7.57;;
48241;SDS011;34041;51.812;4.622;2022-11-20T08:54:12;8.73;;;7.82;;
48241;SDS011;34041;51.812;4.622;2022-11-20T08:57:12;8.73;;;7.63;;
48241;SDS011;34041;51.812;4.622;2022-11-20T09:00:12;8.40;;;7.50;;
48241;SDS011;34041;51.812;4.622;2022-11-20T09:03:13;11.63;;;8.10;;
48241;SDS011;34041;51.812;4.622;2022-11-20T09:06:13;9.17;;;7.90;;
48241;SDS011;34041;51.812;4.622;2022-11-20T09:09:13;8.77;;;7.88;;
48241;SDS011;34041;51.812;4.622;2022-11-20T09:12:14;8.43;;;7.60;;
48241;SDS011;34041;51.812;4.622;2022-11-20T09:15:14;7.87;;;7.10;;
48241;SDS011;34041;51.812;4.622;2022-11-20T09:18:14;8.82;;;7.68;;
48241;SDS011;34041;51.812;4.622;2022-11-20T09:21:14;8.03;;;7.23;;
48241;SDS011;34041;51.812;4.622;2022-11-20T09:24:15;8.20;;;7.35;;
48241;SDS011;34041;51.812;4.622;2022-11-20T09:27:15;9.17;;;7.93;;
48241;SDS011;34041;51.812;4.622;2022-11-20T09:30:20;7.97;;;7.18;;
48241;SDS011;34041;51.812;4.622;2022-11-20T09:33:20;7.97;;;7.17;;
48241;SDS011;34041;51.812;4.622;2022-11-20T09:36:21;9.25;;;7.53;;
48241;SDS011;34041;51.812;4.622;2022-11-20T09:39:21;8.60;;;7.43;;
48241;SDS011;34041;51.812;4.622;2022-11-20T09:52:00;11.27;;;8.65;;
48241;SDS011;34041;51.812;4.622;2022-11-20T09:55:01;9.20;;;8.23;;
48241;SDS011;34041;51.812;4.622;2022-11-20T09:58:01;8.55;;;7.60;;
48241;SDS011;34041;51.812;4.622;2022-11-20T10:01:15;10.05;;;8.57;;
48241;SDS011;34041;51.812;4.622;2022-11-20T10:04:16;11.05;;;8.70;;
48241;SDS011;34041;51.812;4.622;2022-11-20T10:07:20;9.82;;;7.57;;
48241;SDS011;34041;51.812;4.622;2022-11-20T10:10:27;12.52;;;11.13;;
48241;SDS011;34041;51.812;4.622;2022-11-20T10:17:05;10.85;;;9.85;;
48241;SDS011;34041;51.812;4.622;2022-11-20T10:29:19;22.40;;;13.57;;
48241;SDS011;34041;51.812;4.622;2022-11-20T10:32:23;25.65;;;16.65;;
48241;SDS011;34041;51.812;4.622;2022-11-20T10:35:31;30.45;;;16.73;;
48241;SDS011;34041;51.812;4.622;2022-11-20T10:38:41;25.13;;;16.08;;
48241;SDS011;34041;51.812;4.622;2022-11-20T10:41:42;22.55;;;14.05;;
48241;SDS011;34041;51.812;4.622;2022-11-20T10:44:46;23.08;;;14.57;;
48241;SDS011;34041;51.812;4.622;2022-11-20T10:48:09;20.48;;;13.88;;
48241;SDS011;34041;51.812;4.622;2022-11-20T10:51:54;25.65;;;14.60;;
48241;SDS011;34041;51.812;4.622;2022-11-20T10:57:52;21.90;;;14.57;;
48241;SDS011;34041;51.812;4.622;2022-11-20T11:01:05;18.98;;;13.90;;
48241;SDS011;34041;51.812;4.622;2022-11-20T11:04:07;16.02;;;12.73;;
48241;SDS011;34041;51.812;4.622;2022-11-20T11:07:15;21.00;;;13.82;;
48241;SDS011;34041;51.812;4.622;2022-11-20T11:13:35;15.80;;;12.50;;
48241;SDS011;34041;51.812;4.622;2022-11-20T11:16:35;20.80;;;15.00;;
48241;SDS011;34041;51.812;4.622;2022-11-20T11:19:35;22.73;;;13.33;;
48241;SDS011;34041;51.812;4.622;2022-11-20T11:22:42;19.40;;;14.10;;
48241;SDS011;34041;51.812;4.622;2022-11-20T11:25:55;18.83;;;14.07;;
48241;SDS011;34041;51.812;4.622;2022-11-20T11:28:57;15.65;;;12.25;;
48241;SDS011;34041;51.812;4.622;2022-11-20T11:32:05;17.15;;;13.18;;
48241;SDS011;34041;51.812;4.622;2022-11-20T11:35:07;18.73;;;14.50;;
48241;SDS011;34041;51.812;4.622;2022-11-20T11:41:30;17.40;;;14.50;;
48241;SDS011;34041;51.812;4.622;2022-11-20T11:44:32;17.48;;;14.63;;
48241;SDS011;34041;51.812;4.622;2022-11-20T11:47:52;18.83;;;13.57;;
48241;SDS011;34041;51.812;4.622;2022-11-20T11:50:53;18.98;;;14.75;;
48241;SDS011;34041;51.812;4.622;2022-11-20T11:53:54;18.63;;;14.48;;
48241;SDS011;34041;51.812;4.622;2022-11-20T11:56:55;19.58;;;13.07;;
48241;SDS011;34041;51.812;4.622;2022-11-20T12:00:17;18.55;;;13.80;;
48241;SDS011;34041;51.812;4.622;2022-11-20T12:03:20;22.75;;;15.57;;
48241;SDS011;34041;51.812;4.622;2022-11-20T12:06:21;16.33;;;13.73;;
48241;SDS011;34041;51.812;4.622;2022-11-20T12:09:23;19.08;;;14.82;;
48241;SDS011;34041;51.812;4.622;2022-11-20T12:12:26;19.58;;;14.07;;
48241;SDS011;34041;51.812;4.622;2022-11-20T12:15:31;20.27;;;14.85;;
48241;SDS011;34041;51.812;4.622;2022-11-20T12:18:33;17.20;;;14.13;;
48241;SDS011;34041;51.812;4.622;2022-11-20T12:37:22;19.55;;;15.90;;
48241;SDS011;34041;51.812;4.622;2022-11-20T12:59:34;19.88;;;15.00;;
48241;SDS011;34041;51.812;4.622;2022-11-20T13:06:05;19.65;;;14.95;;
48241;SDS011;34041;51.812;4.622;2022-11-20T13:09:14;21.52;;;16.77;;
48241;SDS011;34041;51.812;4.622;2022-11-20T13:15:40;21.35;;;15.75;;
48241;SDS011;34041;51.812;4.622;2022-11-20T13:18:45;21.70;;;16.48;;
48241;SDS011;34041;51.812;4.622;2022-11-20T13:21:46;21.67;;;16.38;;
48241;SDS011;34041;51.812;4.622;2022-11-20T13:24:52;22.45;;;17.75;;
48241;SDS011;34041;51.812;4.622;2022-11-20T13:27:52;30.83;;;21.17;;
48241;SDS011;34041;51.812;4.622;2022-11-20T13:30:53;50.17;;;28.83;;
48241;SDS011;34041;51.812;4.622;2022-11-20T13:33:54;37.40;;;22.92;;
48241;SDS011;34041;51.812;4.622;2022-11-20T13:36:56;34.63;;;22.55;;
48241;SDS011;34041;51.812;4.622;2022-11-20T13:46:16;22.77;;;18.15;;
48241;SDS011;34041;51.812;4.622;2022-11-20T13:49:17;26.92;;;18.65;;
48241;SDS011;34041;51.812;4.622;2022-11-20T13:55:31;24.70;;;18.83;;
48241;SDS011;34041;51.812;4.622;2022-11-20T13:58:40;24.42;;;17.23;;
48241;SDS011;34041;51.812;4.622;2022-11-20T14:01:43;31.55;;;19.73;;
48241;SDS011;34041;51.812;4.622;2022-11-20T14:04:46;24.17;;;17.70;;
48241;SDS011;34041;51.812;4.622;2022-11-20T14:07:46;24.45;;;18.08;;
48241;SDS011;34041;51.812;4.622;2022-11-20T14:10:47;27.80;;;18.77;;
48241;SDS011;34041;51.812;4.622;2022-11-20T14:13:54;24.73;;;18.63;;
48241;SDS011;34041;51.812;4.622;2022-11-20T14:17:08;27.75;;;19.42;;
48241;SDS011;34041;51.812;4.622;2022-11-20T14:20:12;24.92;;;16.85;;
48241;SDS011;34041;51.812;4.622;2022-11-20T14:23:23;20.92;;;17.00;;
48241;SDS011;34041;51.812;4.622;2022-11-20T14:26:23;23.02;;;16.50;;
48241;SDS011;34041;51.812;4.622;2022-11-20T14:29:27;25.90;;;17.73;;
48241;SDS011;34041;51.812;4.622;2022-11-20T14:32:29;24.85;;;17.83;;
48241;SDS011;34041;51.812;4.622;2022-11-20T14:35:31;23.13;;;17.38;;
48241;SDS011;34041;51.812;4.622;2022-11-20T14:38:31;20.52;;;16.17;;
48241;SDS011;34041;51.812;4.622;2022-11-20T14:41:32;20.77;;;16.40;;
48241;SDS011;34041;51.812;4.622;2022-11-20T14:44:33;23.43;;;17.93;;
48241;SDS011;34041;51.812;4.622;2022-11-20T14:47:33;24.90;;;18.50;;
48241;SDS011;34041;51.812;4.622;2022-11-20T14:50:35;21.52;;;15.88;;
48241;SDS011;34041;51.812;4.622;2022-11-20T14:53:35;25.17;;;18.15;;
48241;SDS011;34041;51.812;4.622;2022-11-20T14:56:35;21.30;;;15.93;;
48241;SDS011;34041;51.812;4.622;2022-11-20T14:59:35;22.37;;;17.73;;
48241;SDS011;34041;51.812;4.622;2022-11-20T15:02:40;23.17;;;15.90;;
48241;SDS011;34041;51.812;4.622;2022-11-20T15:05:45;22.05;;;16.23;;
48241;SDS011;34041;51.812;4.622;2022-11-20T15:08:51;22.88;;;16.90;;
48241;SDS011;34041;51.812;4.622;2022-11-20T15:11:56;18.98;;;14.85;;
48241;SDS011;34041;51.812;4.622;2022-11-20T15:17:57;19.33;;;15.60;;
48241;SDS011;34041;51.812;4.622;2022-11-20T15:21:00;21.63;;;15.65;;
48241;SDS011;34041;51.812;4.622;2022-11-20T15:24:01;22.98;;;16.23;;
48241;SDS011;34041;51.812;4.622;2022-11-20T15:27:01;18.70;;;14.55;;
48241;SDS011;34041;51.812;4.622;2022-11-20T15:30:01;18.48;;;14.57;;
48241;SDS011;34041;51.812;4.622;2022-11-20T15:33:02;20.00;;;14.77;;
48241;SDS011;34041;51.812;4.622;2022-11-20T15:36:02;19.83;;;15.17;;
48241;SDS011;34041;51.812;4.622;2022-11-20T15:39:02;19.20;;;14.85;;
48241;SDS011;34041;51.812;4.622;2022-11-20T15:42:03;17.77;;;14.48;;
48241;SDS011;34041;51.812;4.622;2022-11-20T15:45:03;18.85;;;14.88;;
48241;SDS011;34041;51.812;4.622;2022-11-20T15:48:04;18.42;;;14.77;;
48241;SDS011;34041;51.812;4.622;2022-11-20T15:54:14;17.38;;;13.80;;
48241;SDS011;34041;51.812;4.622;2022-11-20T15:57:15;14.90;;;12.35;;
48241;SDS011;34041;51.812;4.622;2022-11-20T16:00:15;16.33;;;13.13;;
48241;SDS011;34041;51.812;4.622;2022-11-20T16:03:16;15.85;;;12.80;;
48241;SDS011;34041;51.812;4.622;2022-11-20T16:06:16;14.48;;;12.25;;
48241;SDS011;34041;51.812;4.622;2022-11-20T16:09:17;18.50;;;13.32;;
48241;SDS011;34041;51.812;4.622;2022-11-20T16:12:17;17.10;;;13.80;;
48241;SDS011;34041;51.812;4.622;2022-11-20T16:15:37;18.20;;;13.77;;
48241;SDS011;34041;51.812;4.622;2022-11-20T16:18:47;15.63;;;12.75;;
48241;SDS011;34041;51.812;4.622;2022-11-20T16:21:47;16.55;;;12.80;;
48241;SDS011;34041;51.812;4.622;2022-11-20T16:24:47;17.98;;;13.63;;
48241;SDS011;34041;51.812;4.622;2022-11-20T16:27:47;13.77;;;11.47;;
48241;SDS011;34041;51.812;4.622;2022-11-20T16:30:48;15.97;;;12.50;;
48241;SDS011;34041;51.812;4.622;2022-11-20T16:33:51;16.55;;;13.18;;
48241;SDS011;34041;51.812;4.622;2022-11-20T16:36:51;15.73;;;12.75;;
48241;SDS011;34041;51.812;4.622;2022-11-20T16:39:52;16.70;;;12.75;;
48241;SDS011;34041;51.812;4.622;2022-11-20T16:42:52;15.93;;;11.82;;
48241;SDS011;34041;51.812;4.622;2022-11-20T16:45:52;14.05;;;11.80;;
48241;SDS011;34041;51.812;4.622;2022-11-20T16:48:53;15.38;;;12.00;;
48241;SDS011;34041;51.812;4.622;2022-11-20T16:51:54;16.55;;;12.63;;
48241;SDS011;34041;51.812;4.622;2022-11-20T16:54:54;14.30;;;11.43;;
48241;SDS011;34041;51.812;4.622;2022-11-20T16:57:54;15.75;;;11.88;;
48241;SDS011;34041;51.812;4.622;2022-11-20T17:00:55;14.43;;;11.20;;
48241;SDS011;34041;51.812;4.622;2022-11-20T17:06:55;15.97;;;11.23;;
48241;SDS011;34041;51.812;4.622;2022-11-20T17:09:55;14.82;;;11.95;;
48241;SDS011;34041;51.812;4.622;2022-11-20T17:12:57;14.43;;;10.63;;
48241;SDS011;34041;51.812;4.622;2022-11-20T17:19:04;12.20;;;9.85;;
48241;SDS011;34041;51.812;4.622;2022-11-20T17:22:04;14.52;;;12.05;;
48241;SDS011;34041;51.812;4.622;2022-11-20T17:25:04;13.33;;;10.23;;
48241;SDS011;34041;51.812;4.622;2022-11-20T17:28:05;14.23;;;11.38;;
48241;SDS011;34041;51.812;4.622;2022-11-20T17:31:06;12.40;;;11.07;;
48241;SDS011;34041;51.812;4.622;2022-11-20T17:34:09;13.95;;;11.07;;
48241;SDS011;34041;51.812;4.622;2022-11-20T17:37:10;15.77;;;10.95;;
48241;SDS011;34041;51.812;4.622;2022-11-20T17:40:10;14.17;;;10.83;;
48241;SDS011;34041;51.812;4.622;2022-11-20T17:43:10;14.67;;;11.77;;
48241;SDS011;34041;51.812;4.622;2022-11-20T17:46:17;13.20;;;11.15;;
48241;SDS011;34041;51.812;4.622;2022-11-20T17:49:18;15.13;;;11.98;;
48241;SDS011;34041;51.812;4.622;2022-11-20T17:52:18;12.87;;;10.40;;
48241;SDS011;34041;51.812;4.622;2022-11-20T17:55:18;13.73;;;11.03;;
48241;SDS011;34041;51.812;4.622;2022-11-20T17:58:18;16.50;;;11.03;;
48241;SDS011;34041;51.812;4.622;2022-11-20T18:01:18;13.93;;;10.73;;
48241;SDS011;34041;51.812;4.622;2022-11-20T18:04:19;15.70;;;11.73;;
48241;SDS011;34041;51.812;4.622;2022-11-20T18:07:19;15.10;;;11.45;;
48241;SDS011;34041;51.812;4.622;2022-11-20T18:10:19;13.55;;;10.40;;
48241;SDS011;34041;51.812;4.622;2022-11-20T18:13:20;15.47;;;12.07;;
48241;SDS011;34041;51.812;4.622;2022-11-20T18:16:41;14.68;;;11.80;;
48241;SDS011;34041;51.812;4.622;2022-11-20T18:19:43;15.30;;;11.38;;
48241;SDS011;34041;51.812;4.622;2022-11-20T18:22:43;15.10;;;11.10;;
48241;SDS011;34041;51.812;4.622;2022-11-20T18:25:43;11.60;;;9.73;;
48241;SDS011;34041;51.812;4.622;2022-11-20T18:28:46;14.00;;;10.63;;
48241;SDS011;34041;51.812;4.622;2022-11-20T18:31:46;13.70;;;11.63;;
48241;SDS011;34041;51.812;4.622;2022-11-20T18:34:46;14.87;;;11.70;;
48241;SDS011;34041;51.812;4.622;2022-11-20T18:37:47;14.32;;;11.45;;
48241;SDS011;34041;51.812;4.622;2022-11-20T18:40:47;15.90;;;11.85;;
48241;SDS011;34041;51.812;4.622;2022-11-20T18:43:47;13.73;;;11.73;;
48241;SDS011;34041;51.812;4.622;2022-11-20T18:47:07;13.27;;;10.30;;
48241;SDS011;34041;51.812;4.622;2022-11-20T18:50:07;12.55;;;11.02;;
48241;SDS011;34041;51.812;4.622;2022-11-20T18:53:08;12.23;;;10.95;;
48241;SDS011;34041;51.812;4.622;2022-11-20T18:56:08;13.80;;;10.87;;
48241;SDS011;34041;51.812;4.622;2022-11-20T18:59:08;14.03;;;11.47;;
48241;SDS011;34041;51.812;4.622;2022-11-20T19:02:12;13.93;;;11.77;;
48241;SDS011;34041;51.812;4.622;2022-11-20T19:05:13;16.70;;;12.02;;
48241;SDS011;34041;51.812;4.622;2022-11-20T19:08:13;12.45;;;10.40;;
48241;SDS011;34041;51.812;4.622;2022-11-20T19:11:14;16.67;;;10.77;;
48241;SDS011;34041;51.812;4.622;2022-11-20T19:14:14;14.55;;;10.57;;
48241;SDS011;34041;51.812;4.622;2022-11-20T19:17:14;12.20;;;9.73;;
48241;SDS011;34041;51.812;4.622;2022-11-20T19:20:16;13.15;;;10.65;;
48241;SDS011;34041;51.812;4.622;2022-11-20T19:23:17;13.57;;;10.90;;
48241;SDS011;34041;51.812;4.622;2022-11-20T19:26:21;13.20;;;11.13;;
48241;SDS011;34041;51.812;4.622;2022-11-20T19:29:21;15.57;;;11.95;;
48241;SDS011;34041;51.812;4.622;2022-11-20T19:32:22;13.98;;;11.55;;
48241;SDS011;34041;51.812;4.622;2022-11-20T19:35:22;14.90;;;11.03;;
48241;SDS011;34041;51.812;4.622;2022-11-20T19:38:23;14.20;;;11.13;;
48241;SDS011;34041;51.812;4.622;2022-11-20T19:41:25;12.20;;;10.15;;